createdAt,value
2023-01-01T00:06:26.740Z,22.0947265625
2023-01-01T00:16:26.699Z,21.49658203125
2023-01-01T00:26:31.021Z,22.900390625
2023-01-01T00:36:26.557Z,21.49658203125
2023-01-01T00:46:26.556Z,21.9970703125
2023-01-01T00:56:26.402Z,21.49658203125
2023-01-01T01:06:26.448Z,21.59423828125
2023-01-01T01:16:26.271Z,22.30224609375
2023-01-01T01:26:26.220Z,20.80078125
2023-01-01T01:36:26.139Z,22.39990234375
2023-01-01T01:46:26.092Z,21.7041015625
2023-01-01T01:56:25.960Z,21.59423828125
2023-01-01T02:06:25.885Z,21.8017578125
2023-01-01T02:16:25.821Z,20.60546875
2023-01-01T02:26:25.773Z,20.49560546875
2023-01-01T02:36:25.674Z,20.60546875
2023-01-01T02:46:26.025Z,19.20166015625
2023-01-01T02:56:25.551Z,19.20166015625
2023-01-01T03:06:25.497Z,18.994140625
2023-01-01T03:16:25.426Z,20.10498046875
2023-01-01T03:26:25.614Z,19.29931640625
2023-01-01T03:36:25.261Z,19.6044921875
2023-01-01T03:46:25.230Z,19.7998046875
2023-01-01T03:56:25.082Z,19.7998046875
2023-01-01T04:06:25.020Z,19.7021484375
2023-01-01T04:16:25.337Z,19.49462890625
2023-01-01T04:26:24.884Z,19.10400390625
2023-01-01T04:36:25.129Z,19.10400390625
2023-01-01T04:46:24.884Z,18.994140625
2023-01-01T04:56:24.687Z,18.798828125
2023-01-01T05:06:24.632Z,18.505859375
2023-01-01T05:16:24.568Z,18.10302734375
2023-01-01T05:26:24.488Z,17.8955078125
2023-01-01T05:36:24.711Z,17.7978515625
2023-01-01T05:46:24.347Z,18.00537109375
2023-01-01T05:56:24.539Z,18.00537109375
2023-01-01T06:06:24.256Z,18.20068359375
2023-01-01T06:16:24.153Z,17.8955078125
2023-01-01T06:26:24.066Z,17.6025390625
2023-01-01T06:36:23.989Z,17.29736328125
2023-01-01T06:46:23.946Z,17.19970703125
2023-01-01T06:56:23.817Z,17.19970703125
2023-01-01T07:06:23.754Z,16.89453125
2023-01-01T07:16:23.749Z,16.69921875
2023-01-01T07:26:23.617Z,16.29638671875
2023-01-01T07:36:23.546Z,16.19873046875
2023-01-01T07:46:23.549Z,16.00341796875
2023-01-01T07:56:23.407Z,15.7958984375
2023-01-01T08:06:23.437Z,15.6005859375
2023-01-01T08:16:23.320Z,15.29541015625
2023-01-01T08:26:23.217Z,15.10009765625
2023-01-01T08:36:23.155Z,14.599609375
2023-01-01T08:46:23.175Z,14.29443359375
2023-01-01T08:56:22.972Z,14.19677734375
2023-01-01T09:06:22.901Z,14.09912109375
2023-01-01T09:16:22.986Z,14.19677734375
2023-01-01T09:26:22.863Z,14.00146484375
2023-01-01T09:36:22.695Z,14.00146484375
2023-01-01T09:46:27.932Z,14.09912109375
2023-01-01T09:56:22.585Z,14.19677734375
2023-01-01T10:06:22.479Z,14.00146484375
2023-01-01T10:16:24.906Z,14.00146484375
2023-01-01T10:26:22.347Z,14.00146484375
2023-01-01T10:36:22.378Z,13.7939453125
2023-01-01T10:46:27.585Z,13.5986328125
2023-01-01T10:56:22.147Z,13.6962890625
2023-01-01T11:06:22.109Z,13.7939453125
2023-01-01T11:16:22.174Z,13.90380859375
2023-01-01T11:26:21.916Z,13.90380859375
2023-01-01T11:36:21.850Z,13.90380859375
2023-01-01T11:46:21.847Z,13.90380859375
2023-01-01T11:56:21.715Z,13.90380859375
2023-01-01T12:06:21.856Z,13.7939453125
2023-01-01T12:16:21.631Z,13.90380859375
2023-01-01T12:26:21.665Z,13.90380859375
2023-01-01T12:36:21.461Z,13.90380859375
2023-01-01T12:46:21.401Z,13.90380859375
2023-01-01T12:56:23.509Z,13.90380859375
2023-01-01T13:06:28.188Z,13.7939453125
2023-01-01T13:16:21.250Z,13.7939453125
2023-01-01T13:26:21.099Z,13.7939453125
2023-01-01T13:36:21.076Z,13.7939453125
2023-01-01T13:46:21.011Z,13.6962890625
2023-01-01T13:56:20.895Z,13.7939453125
2023-01-01T14:06:20.831Z,13.7939453125
2023-01-01T14:16:20.815Z,13.6962890625
2023-01-01T14:26:20.699Z,13.6962890625
2023-01-01T14:36:20.600Z,13.6962890625
2023-01-01T14:46:20.661Z,13.5009765625
2023-01-01T14:56:20.475Z,13.3056640625
2023-01-01T15:06:20.383Z,13.19580078125
2023-01-01T15:16:20.367Z,13.3056640625
2023-01-01T15:26:20.249Z,13.4033203125
2023-01-01T15:36:20.178Z,13.4033203125
2023-01-01T15:46:20.228Z,13.4033203125
2023-01-01T15:56:20.040Z,13.3056640625
2023-01-01T16:06:19.999Z,13.19580078125
2023-01-01T16:16:19.988Z,13.09814453125
2023-01-01T16:26:19.841Z,13.00048828125
2023-01-01T16:36:19.746Z,12.90283203125
2023-01-01T16:46:19.761Z,12.80517578125
2023-01-01T16:56:19.633Z,12.80517578125
2023-01-01T17:06:19.549Z,12.80517578125
2023-01-01T17:16:25.897Z,12.80517578125
2023-01-01T17:26:19.404Z,12.90283203125
2023-01-01T17:36:19.365Z,13.09814453125
2023-01-01T17:46:19.351Z,13.3056640625
2023-01-01T17:56:19.250Z,13.3056640625
2023-01-01T18:06:19.147Z,13.5009765625
2023-01-01T18:16:19.236Z,13.5009765625
2023-01-01T18:26:18.996Z,13.3056640625
2023-01-01T18:36:18.945Z,13.3056640625
2023-01-01T18:46:18.908Z,13.19580078125
2023-01-01T18:56:18.794Z,13.09814453125
2023-01-01T19:06:18.742Z,13.09814453125
2023-01-01T19:16:23.825Z,13.3056640625
2023-01-01T19:26:19.597Z,13.5986328125
2023-01-01T19:36:19.535Z,13.7939453125
2023-01-01T19:46:19.497Z,14.09912109375
2023-01-01T19:56:19.367Z,14.29443359375
2023-01-01T20:06:19.286Z,14.599609375
2023-01-01T20:16:19.305Z,14.599609375
2023-01-01T20:26:19.271Z,15.10009765625
2023-01-01T20:36:19.100Z,16.69921875
2023-01-01T20:46:19.030Z,17.39501953125
2023-01-01T20:56:18.940Z,18.10302734375
2023-01-01T21:06:24.236Z,18.798828125
2023-01-01T21:16:19.043Z,19.8974609375
2023-01-01T21:26:18.725Z,20.49560546875
2023-01-01T21:36:18.648Z,21.49658203125
2023-01-01T21:46:18.690Z,20.39794921875
2023-01-01T21:56:18.543Z,22.30224609375
2023-01-01T22:06:18.455Z,22.30224609375
2023-01-01T22:16:18.518Z,22.59521484375
2023-01-01T22:26:18.312Z,22.802734375
2023-01-01T22:36:18.266Z,20.99609375
2023-01-01T22:46:18.177Z,21.8017578125
2023-01-01T22:56:18.186Z,24.90234375
2023-01-01T23:06:18.022Z,25.1953125
2023-01-01T23:16:17.980Z,23.9990234375
2023-01-01T23:26:17.907Z,24.8046875
2023-01-01T23:36:17.827Z,25.7080078125
2023-01-01T23:46:17.825Z,23.095703125
2023-01-01T23:56:17.786Z,23.8037109375
